sensor_id;sensor_type;location;lat;lon;timestamp;P1;durP1;ratioP1;P2;durP2;ratioP2
65358;SDS011;52491;45.900;6.346;2023-04-22T00:00:53;2.90;;;2.22;;
65358;SDS011;52491;45.900;6.346;2023-04-22T00:03:19;3.40;;;2.28;;
65358;SDS011;52491;45.900;6.346;2023-04-22T00:05:46;3.47;;;2.03;;
65358;SDS011;52491;45.900;6.346;2023-04-22T00:08:12;2.63;;;2.03;;
65358;SDS011;52491;45.900;6.346;2023-04-22T00:10:38;3.45;;;2.20;;
65358;SDS011;52491;45.900;6.346;2023-04-22T00:13:03;3.28;;;2.15;;
65358;SDS011;52491;45.900;6.346;2023-04-22T00:15:29;4.05;;;2.20;;
65358;SDS011;52491;45.900;6.346;2023-04-22T00:17:56;3.10;;;2.00;;
65358;SDS011;52491;45.900;6.346;2023-04-22T00:20:22;4.78;;;2.75;;
65358;SDS011;52491;45.900;6.346;2023-04-22T00:22:48;1.77;;;1.65;;
65358;SDS011;52491;45.900;6.346;2023-04-22T00:25:14;2.15;;;1.70;;
65358;SDS011;52491;45.900;6.346;2023-04-22T00:27:40;2.72;;;1.77;;
65358;SDS011;52491;45.900;6.346;2023-04-22T00:30:06;3.35;;;2.33;;
65358;SDS011;52491;45.900;6.346;2023-04-22T00:32:32;2.97;;;1.95;;
65358;SDS011;52491;45.900;6.346;2023-04-22T00:34:57;3.40;;;2.00;;
65358;SDS011;52491;45.900;6.346;2023-04-22T00:37:23;3.13;;;1.85;;
65358;SDS011;52491;45.900;6.346;2023-04-22T00:39:49;2.20;;;2.00;;
65358;SDS011;52491;45.900;6.346;2023-04-22T00:42:15;2.60;;;1.70;;
65358;SDS011;52491;45.900;6.346;2023-04-22T00:44:41;2.83;;;1.73;;
65358;SDS011;52491;45.900;6.346;2023-04-22T00:47:09;2.95;;;1.90;;
65358;SDS011;52491;45.900;6.346;2023-04-22T00:49:36;2.67;;;1.92;;
65358;SDS011;52491;45.900;6.346;2023-04-22T00:52:02;2.80;;;1.88;;
65358;SDS011;52491;45.900;6.346;2023-04-22T00:54:28;2.08;;;1.75;;
65358;SDS011;52491;45.900;6.346;2023-04-22T00:56:56;2.78;;;1.63;;
65358;SDS011;52491;45.900;6.346;2023-04-22T00:59:23;3.13;;;1.67;;
65358;SDS011;52491;45.900;6.346;2023-04-22T01:01:50;2.72;;;1.67;;
65358;SDS011;52491;45.900;6.346;2023-04-22T01:04:16;2.58;;;2.00;;
65358;SDS011;52491;45.900;6.346;2023-04-22T01:06:42;2.50;;;1.58;;
65358;SDS011;52491;45.900;6.346;2023-04-22T01:09:08;1.77;;;1.63;;
65358;SDS011;52491;45.900;6.346;2023-04-22T01:11:34;2.03;;;1.27;;
65358;SDS011;52491;45.900;6.346;2023-04-22T01:14:00;2.72;;;1.98;;
65358;SDS011;52491;45.900;6.346;2023-04-22T01:16:27;1.70;;;1.33;;
65358;SDS011;52491;45.900;6.346;2023-04-22T01:18:55;1.52;;;1.27;;
65358;SDS011;52491;45.900;6.346;2023-04-22T01:21:21;2.58;;;1.77;;
65358;SDS011;52491;45.900;6.346;2023-04-22T01:23:48;2.05;;;1.10;;
65358;SDS011;52491;45.900;6.346;2023-04-22T01:26:15;3.08;;;1.77;;
65358;SDS011;52491;45.900;6.346;2023-04-22T01:28:40;1.90;;;1.55;;
65358;SDS011;52491;45.900;6.346;2023-04-22T01:31:06;1.92;;;1.50;;
65358;SDS011;52491;45.900;6.346;2023-04-22T01:33:32;2.40;;;1.45;;
65358;SDS011;52491;45.900;6.346;2023-04-22T01:35:58;3.28;;;1.65;;
65358;SDS011;52491;45.900;6.346;2023-04-22T01:38:24;2.38;;;1.48;;
65358;SDS011;52491;45.900;6.346;2023-04-22T01:40:49;2.78;;;1.70;;
65358;SDS011;52491;45.900;6.346;2023-04-22T01:43:15;2.13;;;0.93;;
65358;SDS011;52491;45.900;6.346;2023-04-22T01:45:41;2.67;;;1.85;;
65358;SDS011;52491;45.900;6.346;2023-04-22T01:48:06;1.77;;;1.63;;
65358;SDS011;52491;45.900;6.346;2023-04-22T01:50:32;2.53;;;1.45;;
65358;SDS011;52491;45.900;6.346;2023-04-22T01:52:58;1.38;;;1.27;;
65358;SDS011;52491;45.900;6.346;2023-04-22T01:55:24;3.47;;;1.83;;
65358;SDS011;52491;45.900;6.346;2023-04-22T01:57:49;2.33;;;1.42;;
65358;SDS011;52491;45.900;6.346;2023-04-22T02:00:16;2.03;;;1.80;;
65358;SDS011;52491;45.900;6.346;2023-04-22T02:02:42;2.03;;;1.55;;
65358;SDS011;52491;45.900;6.346;2023-04-22T02:05:08;2.25;;;1.33;;
65358;SDS011;52491;45.900;6.346;2023-04-22T02:07:33;1.77;;;1.10;;
65358;SDS011;52491;45.900;6.346;2023-04-22T02:10:00;1.58;;;1.48;;
65358;SDS011;52491;45.900;6.346;2023-04-22T02:12:28;2.28;;;1.45;;
65358;SDS011;52491;45.900;6.346;2023-04-22T02:14:55;1.52;;;1.35;;
65358;SDS011;52491;45.900;6.346;2023-04-22T02:17:20;1.80;;;1.27;;
65358;SDS011;52491;45.900;6.346;2023-04-22T02:19:46;1.50;;;1.23;;
65358;SDS011;52491;45.900;6.346;2023-04-22T02:22:11;1.30;;;1.20;;
65358;SDS011;52491;45.900;6.346;2023-04-22T02:24:37;2.08;;;1.42;;
65358;SDS011;52491;45.900;6.346;2023-04-22T02:27:03;1.90;;;1.63;;
65358;SDS011;52491;45.900;6.346;2023-04-22T02:29:28;1.23;;;1.13;;
65358;SDS011;52491;45.900;6.346;2023-04-22T02:31:56;1.45;;;1.00;;
65358;SDS011;52491;45.900;6.346;2023-04-22T02:34:23;1.23;;;1.00;;
65358;SDS011;52491;45.900;6.346;2023-04-22T02:36:48;2.05;;;1.30;;
65358;SDS011;52491;45.900;6.346;2023-04-22T02:39:14;1.17;;;1.05;;
65358;SDS011;52491;45.900;6.346;2023-04-22T02:41:39;2.15;;;1.63;;
65358;SDS011;52491;45.900;6.346;2023-04-22T02:44:05;1.70;;;1.35;;
65358;SDS011;52491;45.900;6.346;2023-04-22T02:46:30;3.75;;;1.30;;
65358;SDS011;52491;45.900;6.346;2023-04-22T02:48:56;1.35;;;0.93;;
65358;SDS011;52491;45.900;6.346;2023-04-22T02:51:21;2.45;;;1.05;;
65358;SDS011;52491;45.900;6.346;2023-04-22T02:53:47;1.30;;;1.00;;
65358;SDS011;52491;45.900;6.346;2023-04-22T02:56:13;1.50;;;1.10;;
65358;SDS011;52491;45.900;6.346;2023-04-22T02:58:39;1.02;;;0.93;;
65358;SDS011;52491;45.900;6.346;2023-04-22T03:01:04;1.50;;;1.33;;
65358;SDS011;52491;45.900;6.346;2023-04-22T03:03:30;1.75;;;1.25;;
65358;SDS011;52491;45.900;6.346;2023-04-22T03:05:56;1.85;;;1.30;;
65358;SDS011;52491;45.900;6.346;2023-04-22T03:08:21;1.10;;;1.00;;
65358;SDS011;52491;45.900;6.346;2023-04-22T03:10:47;1.60;;;1.13;;
65358;SDS011;52491;45.900;6.346;2023-04-22T03:13:13;1.20;;;0.95;;
65358;SDS011;52491;45.900;6.346;2023-04-22T03:15:41;1.30;;;1.15;;
65358;SDS011;52491;45.900;6.346;2023-04-22T03:18:07;2.05;;;1.27;;
65358;SDS011;52491;45.900;6.346;2023-04-22T03:20:33;1.40;;;1.30;;
65358;SDS011;52491;45.900;6.346;2023-04-22T03:22:59;1.25;;;1.15;;
65358;SDS011;52491;45.900;6.346;2023-04-22T03:25:25;1.73;;;1.25;;
65358;SDS011;52491;45.900;6.346;2023-04-22T03:27:51;1.27;;;0.90;;
65358;SDS011;52491;45.900;6.346;2023-04-22T03:30:17;2.97;;;1.38;;
65358;SDS011;52491;45.900;6.346;2023-04-22T03:32:42;1.73;;;1.30;;
65358;SDS011;52491;45.900;6.346;2023-04-22T03:35:08;2.08;;;1.80;;
65358;SDS011;52491;45.900;6.346;2023-04-22T03:37:34;1.88;;;1.20;;
65358;SDS011;52491;45.900;6.346;2023-04-22T03:39:59;2.47;;;1.13;;
65358;SDS011;52491;45.900;6.346;2023-04-22T03:42:25;1.27;;;1.00;;
65358;SDS011;52491;45.900;6.346;2023-04-22T03:44:51;2.80;;;0.93;;
65358;SDS011;52491;45.900;6.346;2023-04-22T03:47:16;1.00;;;0.90;;
65358;SDS011;52491;45.900;6.346;2023-04-22T03:49:42;1.55;;;1.05;;
65358;SDS011;52491;45.900;6.346;2023-04-22T03:52:07;2.47;;;1.10;;
65358;SDS011;52491;45.900;6.346;2023-04-22T03:54:33;1.48;;;1.27;;
65358;SDS011;52491;45.900;6.346;2023-04-22T03:56:59;1.30;;;1.10;;
65358;SDS011;52491;45.900;6.346;2023-04-22T03:59:24;1.10;;;1.00;;
65358;SDS011;52491;45.900;6.346;2023-04-22T04:01:50;1.13;;;1.02;;
65358;SDS011;52491;45.900;6.346;2023-04-22T04:04:17;2.05;;;1.10;;
65358;SDS011;52491;45.900;6.346;2023-04-22T04:06:43;0.88;;;0.70;;
65358;SDS011;52491;45.900;6.346;2023-04-22T04:09:08;2.20;;;1.10;;
65358;SDS011;52491;45.900;6.346;2023-04-22T04:11:35;1.67;;;1.00;;
65358;SDS011;52491;45.900;6.346;2023-04-22T04:14:00;1.40;;;1.15;;
65358;SDS011;52491;45.900;6.346;2023-04-22T04:16:27;1.15;;;1.05;;
65358;SDS011;52491;45.900;6.346;2023-04-22T04:18:53;1.42;;;1.05;;
65358;SDS011;52491;45.900;6.346;2023-04-22T04:21:18;2.00;;;1.13;;
65358;SDS011;52491;45.900;6.346;2023-04-22T04:23:44;1.50;;;1.40;;
65358;SDS011;52491;45.900;6.346;2023-04-22T04:26:10;0.88;;;0.88;;
65358;SDS011;52491;45.900;6.346;2023-04-22T04:28:36;3.40;;;1.40;;
65358;SDS011;52491;45.900;6.346;2023-04-22T04:31:02;1.88;;;1.20;;
65358;SDS011;52491;45.900;6.346;2023-04-22T04:33:28;1.10;;;0.98;;
65358;SDS011;52491;45.900;6.346;2023-04-22T04:35:55;1.38;;;1.27;;
65358;SDS011;52491;45.900;6.346;2023-04-22T04:38:22;2.70;;;1.00;;
65358;SDS011;52491;45.900;6.346;2023-04-22T04:40:49;1.10;;;1.00;;
65358;SDS011;52491;45.900;6.346;2023-04-22T04:43:15;1.13;;;1.00;;
65358;SDS011;52491;45.900;6.346;2023-04-22T04:45:41;0.80;;;0.80;;
65358;SDS011;52491;45.900;6.346;2023-04-22T04:48:13;1.50;;;1.02;;
65358;SDS011;52491;45.900;6.346;2023-04-22T04:50:40;1.55;;;1.10;;
65358;SDS011;52491;45.900;6.346;2023-04-22T04:53:06;1.05;;;1.00;;
65358;SDS011;52491;45.900;6.346;2023-04-22T04:55:32;1.17;;;1.08;;
65358;SDS011;52491;45.900;6.346;2023-04-22T04:57:58;2.95;;;1.20;;
65358;SDS011;52491;45.900;6.346;2023-04-22T05:00:24;1.45;;;1.10;;
65358;SDS011;52491;45.900;6.346;2023-04-22T05:02:49;1.13;;;0.98;;
65358;SDS011;52491;45.900;6.346;2023-04-22T05:05:15;1.23;;;1.10;;
65358;SDS011;52491;45.900;6.346;2023-04-22T05:07:41;1.85;;;1.58;;
65358;SDS011;52491;45.900;6.346;2023-04-22T05:10:06;1.35;;;1.10;;
65358;SDS011;52491;45.900;6.346;2023-04-22T05:12:32;1.05;;;0.90;;
65358;SDS011;52491;45.900;6.346;2023-04-22T05:14:58;1.52;;;1.00;;
65358;SDS011;52491;45.900;6.346;2023-04-22T05:17:24;1.20;;;1.10;;
65358;SDS011;52491;45.900;6.346;2023-04-22T05:19:49;1.35;;;1.20;;
65358;SDS011;52491;45.900;6.346;2023-04-22T05:22:15;0.77;;;0.77;;
65358;SDS011;52491;45.900;6.346;2023-04-22T05:24:42;0.80;;;0.80;;
65358;SDS011;52491;45.900;6.346;2023-04-22T05:27:07;1.20;;;1.10;;
65358;SDS011;52491;45.900;6.346;2023-04-22T05:29:33;1.08;;;0.98;;
65358;SDS011;52491;45.900;6.346;2023-04-22T05:31:59;1.48;;;0.75;;
65358;SDS011;52491;45.900;6.346;2023-04-22T05:34:25;1.13;;;1.00;;
65358;SDS011;52491;45.900;6.346;2023-04-22T05:36:50;2.13;;;1.00;;
65358;SDS011;52491;45.900;6.346;2023-04-22T05:39:16;0.90;;;0.75;;
65358;SDS011;52491;45.900;6.346;2023-04-22T05:41:42;0.90;;;0.90;;
65358;SDS011;52491;45.900;6.346;2023-04-22T05:44:07;1.05;;;0.90;;
65358;SDS011;52491;45.900;6.346;2023-04-22T05:46:33;1.17;;;1.08;;
65358;SDS011;52491;45.900;6.346;2023-04-22T05:48:59;1.13;;;0.85;;
65358;SDS011;52491;45.900;6.346;2023-04-22T05:51:24;1.00;;;0.80;;
65358;SDS011;52491;45.900;6.346;2023-04-22T05:53:50;1.25;;;0.80;;
65358;SDS011;52491;45.900;6.346;2023-04-22T05:56:16;1.80;;;0.85;;
65358;SDS011;52491;45.900;6.346;2023-04-22T05:58:42;0.80;;;0.80;;
65358;SDS011;52491;45.900;6.346;2023-04-22T06:01:07;1.80;;;1.00;;
65358;SDS011;52491;45.900;6.346;2023-04-22T06:03:33;0.93;;;0.90;;
65358;SDS011;52491;45.900;6.346;2023-04-22T06:05:59;2.10;;;0.95;;
65358;SDS011;52491;45.900;6.346;2023-04-22T06:08:25;0.75;;;0.75;;
65358;SDS011;52491;45.900;6.346;2023-04-22T06:10:51;0.90;;;0.90;;
65358;SDS011;52491;45.900;6.346;2023-04-22T06:13:16;1.80;;;1.33;;
65358;SDS011;52491;45.900;6.346;2023-04-22T06:15:42;1.27;;;0.95;;
65358;SDS011;52491;45.900;6.346;2023-04-22T06:18:08;0.80;;;0.80;;
65358;SDS011;52491;45.900;6.346;2023-04-22T06:20:33;1.00;;;0.85;;
65358;SDS011;52491;45.900;6.346;2023-04-22T06:23:00;1.40;;;1.02;;
65358;SDS011;52491;45.900;6.346;2023-04-22T06:25:26;1.60;;;0.82;;
65358;SDS011;52491;45.900;6.346;2023-04-22T06:27:52;3.05;;;1.02;;
65358;SDS011;52491;45.900;6.346;2023-04-22T06:30:17;0.90;;;0.82;;
65358;SDS011;52491;45.900;6.346;2023-04-22T06:32:43;1.05;;;0.80;;
65358;SDS011;52491;45.900;6.346;2023-04-22T06:35:09;1.00;;;0.85;;
65358;SDS011;52491;45.900;6.346;2023-04-22T06:37:36;0.98;;;0.80;;
65358;SDS011;52491;45.900;6.346;2023-04-22T06:40:02;1.42;;;0.93;;
65358;SDS011;52491;45.900;6.346;2023-04-22T06:42:28;1.17;;;0.90;;
65358;SDS011;52491;45.900;6.346;2023-04-22T06:44:56;1.23;;;1.13;;
65358;SDS011;52491;45.900;6.346;2023-04-22T06:47:21;1.10;;;1.00;;
65358;SDS011;52491;45.900;6.346;2023-04-22T06:49:47;1.33;;;0.93;;
65358;SDS011;52491;45.900;6.346;2023-04-22T06:52:14;1.27;;;1.05;;
65358;SDS011;52491;45.900;6.346;2023-04-22T06:54:40;2.15;;;0.88;;
65358;SDS011;52491;45.900;6.346;2023-04-22T06:57:06;1.65;;;1.15;;
65358;SDS011;52491;45.900;6.346;2023-04-22T06:59:32;1.00;;;0.88;;
65358;SDS011;52491;45.900;6.346;2023-04-22T07:01:57;1.45;;;1.10;;
65358;SDS011;52491;45.900;6.346;2023-04-22T07:04:23;2.08;;;1.02;;
65358;SDS011;52491;45.900;6.346;2023-04-22T07:06:49;5.47;;;1.60;;
65358;SDS011;52491;45.900;6.346;2023-04-22T07:09:14;4.78;;;1.10;;
65358;SDS011;52491;45.900;6.346;2023-04-22T07:11:40;2.47;;;1.20;;
65358;SDS011;52491;45.900;6.346;2023-04-22T07:14:07;1.13;;;1.02;;
65358;SDS011;52491;45.900;6.346;2023-04-22T07:16:33;4.03;;;1.52;;
65358;SDS011;52491;45.900;6.346;2023-04-22T07:18:58;4.25;;;1.48;;
65358;SDS011;52491;45.900;6.346;2023-04-22T07:21:24;6.85;;;1.17;;
65358;SDS011;52491;45.900;6.346;2023-04-22T07:23:50;4.03;;;1.13;;
65358;SDS011;52491;45.900;6.346;2023-04-22T07:26:16;1.40;;;1.08;;
65358;SDS011;52491;45.900;6.346;2023-04-22T07:28:43;3.53;;;1.63;;
65358;SDS011;52491;45.900;6.346;2023-04-22T07:31:08;5.30;;;1.90;;
65358;SDS011;52491;45.900;6.346;2023-04-22T07:33:34;1.50;;;1.20;;
65358;SDS011;52491;45.900;6.346;2023-04-22T07:35:59;10.77;;;1.98;;
65358;SDS011;52491;45.900;6.346;2023-04-22T07:38:25;10.38;;;2.53;;
65358;SDS011;52491;45.900;6.346;2023-04-22T07:40:51;26.58;;;2.15;;
65358;SDS011;52491;45.900;6.346;2023-04-22T07:43:16;6.97;;;1.30;;
65358;SDS011;52491;45.900;6.346;2023-04-22T07:45:42;2.55;;;1.30;;
65358;SDS011;52491;45.900;6.346;2023-04-22T07:48:08;1.90;;;1.73;;
65358;SDS011;52491;45.900;6.346;2023-04-22T07:50:33;2.92;;;1.50;;
65358;SDS011;52491;45.900;6.346;2023-04-22T07:52:59;2.35;;;2.05;;
65358;SDS011;52491;45.900;6.346;2023-04-22T07:55:24;2.05;;;1.67;;
65358;SDS011;52491;45.900;6.346;2023-04-22T07:57:50;3.20;;;1.23;;
65358;SDS011;52491;45.900;6.346;2023-04-22T08:00:16;5.05;;;1.42;;
65358;SDS011;52491;45.900;6.346;2023-04-22T08:02:41;2.65;;;1.73;;
65358;SDS011;52491;45.900;6.346;2023-04-22T08:05:08;3.30;;;2.08;;
65358;SDS011;52491;45.900;6.346;2023-04-22T08:07:35;3.10;;;1.90;;
65358;SDS011;52491;45.900;6.346;2023-04-22T08:10:00;1.50;;;1.40;;
65358;SDS011;52491;45.900;6.346;2023-04-22T08:12:26;3.63;;;1.67;;
65358;SDS011;52491;45.900;6.346;2023-04-22T08:14:52;3.63;;;2.47;;
65358;SDS011;52491;45.900;6.346;2023-04-22T08:17:18;2.75;;;1.85;;
65358;SDS011;52491;45.900;6.346;2023-04-22T08:19:46;2.95;;;2.03;;
65358;SDS011;52491;45.900;6.346;2023-04-22T08:22:12;2.70;;;2.17;;
65358;SDS011;52491;45.900;6.346;2023-04-22T08:24:38;4.72;;;2.35;;
65358;SDS011;52491;45.900;6.346;2023-04-22T08:27:04;3.10;;;2.08;;
65358;SDS011;52491;45.900;6.346;2023-04-22T08:29:29;2.78;;;1.85;;
65358;SDS011;52491;45.900;6.346;2023-04-22T08:31:55;3.22;;;2.22;;
65358;SDS011;52491;45.900;6.346;2023-04-22T08:34:20;6.35;;;2.13;;
65358;SDS011;52491;45.900;6.346;2023-04-22T08:36:46;4.53;;;2.17;;
65358;SDS011;52491;45.900;6.346;2023-04-22T08:39:12;3.47;;;2.60;;
65358;SDS011;52491;45.900;6.346;2023-04-22T08:41:37;3.25;;;2.22;;
65358;SDS011;52491;45.900;6.346;2023-04-22T08:44:03;3.08;;;1.85;;
65358;SDS011;52491;45.900;6.346;2023-04-22T08:46:29;2.13;;;1.67;;
65358;SDS011;52491;45.900;6.346;2023-04-22T08:48:55;4.22;;;2.40;;
65358;SDS011;52491;45.900;6.346;2023-04-22T08:51:27;2.63;;;2.20;;
65358;SDS011;52491;45.900;6.346;2023-04-22T08:53:56;4.07;;;2.00;;
65358;SDS011;52491;45.900;6.346;2023-04-22T08:56:21;3.80;;;2.63;;
65358;SDS011;52491;45.900;6.346;2023-04-22T08:58:49;2.35;;;1.95;;
65358;SDS011;52491;45.900;6.346;2023-04-22T09:01:15;2.83;;;2.13;;
65358;SDS011;52491;45.900;6.346;2023-04-22T09:03:41;2.38;;;1.98;;
65358;SDS011;52491;45.900;6.346;2023-04-22T09:06:09;2.17;;;1.90;;
65358;SDS011;52491;45.900;6.346;2023-04-22T09:08:35;2.28;;;1.88;;
65358;SDS011;52491;45.900;6.346;2023-04-22T09:11:01;2.20;;;2.00;;
65358;SDS011;52491;45.900;6.346;2023-04-22T09:13:28;2.88;;;1.92;;
65358;SDS011;52491;45.900;6.346;2023-04-22T09:15:53;3.33;;;2.55;;
65358;SDS011;52491;45.900;6.346;2023-04-22T09:18:19;2.90;;;1.88;;
65358;SDS011;52491;45.900;6.346;2023-04-22T09:20:48;3.30;;;2.08;;
65358;SDS011;52491;45.900;6.346;2023-04-22T09:23:14;3.63;;;2.22;;
65358;SDS011;52491;45.900;6.346;2023-04-22T09:25:40;3.55;;;2.15;;
65358;SDS011;52491;45.900;6.346;2023-04-22T09:28:09;2.75;;;2.42;;
65358;SDS011;52491;45.900;6.346;2023-04-22T09:30:36;2.17;;;1.88;;
65358;SDS011;52491;45.900;6.346;2023-04-22T09:33:03;2.20;;;2.00;;
65358;SDS011;52491;45.900;6.346;2023-04-22T09:37:57;2.47;;;2.25;;
65358;SDS011;52491;45.900;6.346;2023-04-22T09:40:23;2.47;;;2.10;;
65358;SDS011;52491;45.900;6.346;2023-04-22T09:42:50;2.63;;;1.88;;
65358;SDS011;52491;45.900;6.346;2023-04-22T09:45:24;3.70;;;2.28;;
65358;SDS011;52491;45.900;6.346;2023-04-22T09:48:10;2.50;;;2.17;;
65358;SDS011;52491;45.900;6.346;2023-04-22T09:50:39;2.63;;;2.33;;
65358;SDS011;52491;45.900;6.346;2023-04-22T09:53:09;3.67;;;1.90;;
65358;SDS011;52491;45.900;6.346;2023-04-22T09:55:37;2.88;;;1.98;;
65358;SDS011;52491;45.900;6.346;2023-04-22T09:58:08;3.08;;;2.15;;
65358;SDS011;52491;45.900;6.346;2023-04-22T10:00:49;3.22;;;1.60;;
65358;SDS011;52491;45.900;6.346;2023-04-22T10:03:17;2.70;;;2.05;;
65358;SDS011;52491;45.900;6.346;2023-04-22T10:05:44;2.95;;;1.95;;
65358;SDS011;52491;45.900;6.346;2023-04-22T10:08:10;2.55;;;1.70;;
65358;SDS011;52491;45.900;6.346;2023-04-22T10:10:38;2.03;;;1.60;;
65358;SDS011;52491;45.900;6.346;2023-04-22T10:13:05;2.90;;;1.77;;
65358;SDS011;52491;45.900;6.346;2023-04-22T10:15:41;2.28;;;1.83;;
65358;SDS011;52491;45.900;6.346;2023-04-22T10:18:11;2.03;;;1.92;;
65358;SDS011;52491;45.900;6.346;2023-04-22T10:20:39;3.28;;;1.88;;
65358;SDS011;52491;45.900;6.346;2023-04-22T10:23:11;3.88;;;2.75;;
65358;SDS011;52491;45.900;6.346;2023-04-22T10:25:40;4.45;;;2.22;;
65358;SDS011;52491;45.900;6.346;2023-04-22T10:28:06;3.03;;;1.92;;
65358;SDS011;52491;45.900;6.346;2023-04-22T10:30:34;6.22;;;2.53;;
65358;SDS011;52491;45.900;6.346;2023-04-22T10:36:06;329.23;;;195.60;;
65358;SDS011;52491;45.900;6.346;2023-04-22T10:38:36;193.03;;;111.47;;
65358;SDS011;52491;45.900;6.346;2023-04-22T10:41:05;211.57;;;132.40;;
65358;SDS011;52491;45.900;6.346;2023-04-22T10:43:41;178.43;;;106.10;;
65358;SDS011;52491;45.900;6.346;2023-04-22T10:49:23;116.82;;;74.82;;
65358;SDS011;52491;45.900;6.346;2023-04-22T10:51:54;112.70;;;66.57;;
65358;SDS011;52491;45.900;6.346;2023-04-22T10:57:06;85.30;;;48.80;;
65358;SDS011;52491;45.900;6.346;2023-04-22T10:59:40;85.70;;;49.15;;
65358;SDS011;52491;45.900;6.346;2023-04-22T11:02:08;40.30;;;22.90;;
65358;SDS011;52491;45.900;6.346;2023-04-22T11:04:37;50.67;;;28.30;;
65358;SDS011;52491;45.900;6.346;2023-04-22T11:15:06;44.33;;;25.73;;
65358;SDS011;52491;45.900;6.346;2023-04-22T11:17:36;43.38;;;23.77;;
65358;SDS011;52491;45.900;6.346;2023-04-22T11:20:04;41.15;;;23.00;;
65358;SDS011;52491;45.900;6.346;2023-04-22T11:22:35;38.20;;;22.17;;
65358;SDS011;52491;45.900;6.346;2023-04-22T11:25:02;38.97;;;20.80;;
65358;SDS011;52491;45.900;6.346;2023-04-22T11:27:30;39.33;;;20.05;;
65358;SDS011;52491;45.900;6.346;2023-04-22T11:29:59;29.48;;;17.92;;
65358;SDS011;52491;45.900;6.346;2023-04-22T11:32:26;28.42;;;17.60;;
65358;SDS011;52491;45.900;6.346;2023-04-22T11:34:52;32.08;;;18.55;;
65358;SDS011;52491;45.900;6.346;2023-04-22T11:37:18;28.55;;;18.08;;
65358;SDS011;52491;45.900;6.346;2023-04-22T11:39:43;26.25;;;17.98;;
65358;SDS011;52491;45.900;6.346;2023-04-22T11:42:11;35.00;;;16.98;;
65358;SDS011;52491;45.900;6.346;2023-04-22T11:44:37;25.45;;;13.68;;
65358;SDS011;52491;45.900;6.346;2023-04-22T11:47:03;29.80;;;15.52;;
65358;SDS011;52491;45.900;6.346;2023-04-22T11:49:29;23.73;;;13.68;;
65358;SDS011;52491;45.900;6.346;2023-04-22T11:51:56;28.45;;;15.60;;
65358;SDS011;52491;45.900;6.346;2023-04-22T11:54:30;23.45;;;13.40;;
65358;SDS011;52491;45.900;6.346;2023-04-22T11:57:00;29.95;;;15.52;;
65358;SDS011;52491;45.900;6.346;2023-04-22T11:59:27;23.70;;;13.82;;
65358;SDS011;52491;45.900;6.346;2023-04-22T12:01:53;21.52;;;12.43;;
65358;SDS011;52491;45.900;6.346;2023-04-22T12:04:21;22.92;;;13.35;;
65358;SDS011;52491;45.900;6.346;2023-04-22T12:06:48;23.45;;;13.38;;
65358;SDS011;52491;45.900;6.346;2023-04-22T12:09:15;21.88;;;12.88;;
65358;SDS011;52491;45.900;6.346;2023-04-22T12:11:43;23.30;;;12.15;;
65358;SDS011;52491;45.900;6.346;2023-04-22T12:14:10;20.50;;;13.18;;
65358;SDS011;52491;45.900;6.346;2023-04-22T12:16:39;20.95;;;13.27;;
65358;SDS011;52491;45.900;6.346;2023-04-22T12:19:06;19.80;;;11.27;;
65358;SDS011;52491;45.900;6.346;2023-04-22T12:21:31;22.30;;;12.02;;
65358;SDS011;52491;45.900;6.346;2023-04-22T12:23:58;20.75;;;11.80;;
65358;SDS011;52491;45.900;6.346;2023-04-22T12:26:30;21.58;;;12.02;;
65358;SDS011;52491;45.900;6.346;2023-04-22T12:28:57;42.85;;;12.82;;
65358;SDS011;52491;45.900;6.346;2023-04-22T12:31:24;24.33;;;12.15;;
65358;SDS011;52491;45.900;6.346;2023-04-22T12:33:50;17.60;;;9.68;;
65358;SDS011;52491;45.900;6.346;2023-04-22T12:36:17;17.88;;;10.30;;
65358;SDS011;52491;45.900;6.346;2023-04-22T12:38:47;22.13;;;11.27;;
65358;SDS011;52491;45.900;6.346;2023-04-22T12:41:13;29.63;;;11.80;;
65358;SDS011;52491;45.900;6.346;2023-04-22T12:43:42;28.30;;;10.77;;
65358;SDS011;52491;45.900;6.346;2023-04-22T12:46:08;18.92;;;10.65;;
65358;SDS011;52491;45.900;6.346;2023-04-22T12:48:33;16.90;;;10.30;;
65358;SDS011;52491;45.900;6.346;2023-04-22T12:51:01;20.05;;;10.43;;
65358;SDS011;52491;45.900;6.346;2023-04-22T12:53:27;17.52;;;10.43;;
65358;SDS011;52491;45.900;6.346;2023-04-22T12:55:54;22.13;;;10.30;;
65358;SDS011;52491;45.900;6.346;2023-04-22T12:58:20;17.92;;;9.23;;
65358;SDS011;52491;45.900;6.346;2023-04-22T13:00:45;17.08;;;9.90;;
65358;SDS011;52491;45.900;6.346;2023-04-22T13:03:11;19.55;;;10.05;;
65358;SDS011;52491;45.900;6.346;2023-04-22T13:05:36;16.25;;;10.00;;
65358;SDS011;52491;45.900;6.346;2023-04-22T13:08:04;17.33;;;10.80;;
65358;SDS011;52491;45.900;6.346;2023-04-22T13:10:29;19.67;;;9.48;;
65358;SDS011;52491;45.900;6.346;2023-04-22T13:12:55;19.42;;;9.35;;
65358;SDS011;52491;45.900;6.346;2023-04-22T13:15:30;14.30;;;8.98;;
65358;SDS011;52491;45.900;6.346;2023-04-22T13:17:56;15.70;;;8.38;;
65358;SDS011;52491;45.900;6.346;2023-04-22T13:20:22;14.77;;;8.13;;
65358;SDS011;52491;45.900;6.346;2023-04-22T13:22:48;15.15;;;8.93;;
65358;SDS011;52491;45.900;6.346;2023-04-22T13:25:14;14.30;;;8.10;;
65358;SDS011;52491;45.900;6.346;2023-04-22T13:27:40;13.45;;;8.00;;
65358;SDS011;52491;45.900;6.346;2023-04-22T13:30:06;10.68;;;7.00;;
65358;SDS011;52491;45.900;6.346;2023-04-22T13:32:33;12.63;;;7.88;;
65358;SDS011;52491;45.900;6.346;2023-04-22T13:34:59;19.05;;;8.65;;
65358;SDS011;52491;45.900;6.346;2023-04-22T13:37:25;18.48;;;8.23;;
65358;SDS011;52491;45.900;6.346;2023-04-22T13:39:50;11.43;;;7.68;;
65358;SDS011;52491;45.900;6.346;2023-04-22T13:42:16;16.05;;;7.43;;
65358;SDS011;52491;45.900;6.346;2023-04-22T13:44:42;16.13;;;9.20;;
65358;SDS011;52491;45.900;6.346;2023-04-22T13:47:07;14.07;;;7.50;;
65358;SDS011;52491;45.900;6.346;2023-04-22T13:49:33;17.40;;;7.47;;
65358;SDS011;52491;45.900;6.346;2023-04-22T13:51:59;18.42;;;6.72;;
65358;SDS011;52491;45.900;6.346;2023-04-22T13:54:25;18.73;;;7.00;;
65358;SDS011;52491;45.900;6.346;2023-04-22T13:56:52;10.48;;;6.75;;
65358;SDS011;52491;45.900;6.346;2023-04-22T13:59:18;11.00;;;6.18;;
65358;SDS011;52491;45.900;6.346;2023-04-22T14:01:43;11.23;;;5.53;;
65358;SDS011;52491;45.900;6.346;2023-04-22T14:04:09;15.80;;;7.03;;
65358;SDS011;52491;45.900;6.346;2023-04-22T14:06:34;10.85;;;6.55;;
65358;SDS011;52491;45.900;6.346;2023-04-22T14:09:00;12.32;;;6.20;;
65358;SDS011;52491;45.900;6.346;2023-04-22T14:11:28;9.93;;;6.28;;
65358;SDS011;52491;45.900;6.346;2023-04-22T14:13:54;11.25;;;6.30;;
65358;SDS011;52491;45.900;6.346;2023-04-22T14:16:19;11.35;;;6.45;;
65358;SDS011;52491;45.900;6.346;2023-04-22T14:18:45;9.75;;;5.45;;
65358;SDS011;52491;45.900;6.346;2023-04-22T14:21:11;13.75;;;5.97;;
65358;SDS011;52491;45.900;6.346;2023-04-22T14:23:38;11.60;;;5.88;;
65358;SDS011;52491;45.900;6.346;2023-04-22T14:26:05;10.45;;;5.13;;
65358;SDS011;52491;45.900;6.346;2023-04-22T14:28:32;12.20;;;5.43;;
65358;SDS011;52491;45.900;6.346;2023-04-22T14:30:58;11.63;;;5.35;;
65358;SDS011;52491;45.900;6.346;2023-04-22T14:33:24;9.02;;;6.00;;
65358;SDS011;52491;45.900;6.346;2023-04-22T14:35:50;10.48;;;5.25;;
65358;SDS011;52491;45.900;6.346;2023-04-22T14:38:17;9.68;;;5.75;;
65358;SDS011;52491;45.900;6.346;2023-04-22T14:40:43;8.63;;;4.88;;
65358;SDS011;52491;45.900;6.346;2023-04-22T14:43:09;8.15;;;5.65;;
65358;SDS011;52491;45.900;6.346;2023-04-22T14:45:34;8.88;;;5.70;;
65358;SDS011;52491;45.900;6.346;2023-04-22T14:48:00;12.27;;;5.50;;
65358;SDS011;52491;45.900;6.346;2023-04-22T14:50:25;4.72;;;3.88;;
65358;SDS011;52491;45.900;6.346;2023-04-22T14:52:52;5.32;;;3.45;;
65358;SDS011;52491;45.900;6.346;2023-04-22T14:55:18;6.55;;;3.92;;